Data for 04/26/2010

Time Sea-Level Adjusted Pressure Absolute Pressure Temperature Relative Humidity Dew Point   
(mb) (inHg) (mb) (inHg) (C) (F) (%) (C) (F)
00:05 1022 30.18 851 25.13 1.9 35.3 47 -8.2 17.2
00:10 1022 30.18 851 25.13 2 35.5 50 -7.4 18.7
00:15 1022 30.18 851 25.13 1.9 35.4 55 -6.3 20.7
00:20 1022 30.18 851 25.13 1.9 35.4 56 -6.1 21.1
00:25 1022 30.18 851 25.13 1.9 35.4 56 -6 21.1
00:30 1022 30.18 851 25.13 1.8 35.2 57 -5.8 21.5
00:35 1022 30.18 851 25.13 1.7 35 58 -5.6 21.9
00:40 1022 30.18 851 25.13 1.5 34.6 57 -6.2 20.8
00:45 1022 30.18 851 25.13 1 33.8 58 -6.5 20.4
00:50 1022 30.18 851 25.13 0.7 33.2 58 -6.8 19.8
00:55 1022 30.18 851 25.13 0.6 33.2 62 -5.8 21.5
01:00 1022 30.18 851 25.13 0.7 33.2 67 -4.8 23.4
01:05 1022 30.18 851 25.13 0.9 33.6 68 -4.4 24
01:10 1022 30.18 851 25.13 1 33.7 70 -3.9 24.9
01:15 1022 30.18 851 25.13 1 33.9 70 -3.9 25
01:20 1022 30.18 851 25.13 1 33.7 68 -4.3 24.2
01:25 1022 30.18 851 25.13 0.8 33.5 71 -3.9 24.9
01:30 1022 30.18 851 25.13 0.8 33.5 71 -3.9 25
01:35 1022 30.18 851 25.13 0.8 33.4 71 -3.8 25.1
01:40 1022 30.18 851 25.13 0.8 33.4 69 -4.3 24.3
01:45 1022 30.18 851 25.13 0.7 33.3 70 -4.1 24.5
01:50 1022 30.18 851 25.13 0.6 33.2 67 -4.8 23.3
01:55 1022 30.18 851 25.13 0.5 32.9 69 -4.6 23.8
02:00 1022 30.18 851 25.13 0.4 32.8 68 -4.8 23.3
02:05 1022 30.18 851 25.13 0.1 32.3 70 -4.6 23.7
02:10 1022 30.18 851 25.13 0.1 32.2 71 -4.6 23.8
02:15 1022 30.18 851 25.13 0.3 32.5 73 -4 24.8
02:20 1022 30.18 851 25.13 0.4 32.8 72 -4 24.8
02:25 1022 30.18 851 25.13 0.5 32.9 73 -3.8 25.1
02:30 1022 30.18 851 25.13 0.5 32.9 72 -3.9 25
02:35 1022 30.18 851 25.13 0.5 32.9 72 -4 24.7
02:40 1022 30.18 851 25.13 0.4 32.8 72 -4.1 24.6
02:45 1022 30.18 851 25.13 0.3 32.6 71 -4.3 24.3
02:50 1022 30.18 851 25.13 0.1 32.3 71 -4.4 24
02:55 1022 30.18 851 25.13 -0.1 31.8 72 -4.5 23.9
03:00 1022 30.18 851 25.13 -0.2 31.6 72 -4.7 23.6
03:05 1022 30.18 851 25.13 -0.3 31.5 71 -4.9 23.2
03:10 1022 30.18 851 25.13 -0.3 31.5 70 -5.1 22.9
03:15 1022 30.18 851 25.13 -0.2 31.6 71 -4.9 23.1
03:20 1022 30.18 851 25.13 -0.2 31.7 70 -5 23
03:25 1022 30.18 851 25.13 -0.2 31.7 70 -5 23
03:30 1022 30.18 851 25.13 -0.2 31.6 71 -4.8 23.4
03:35 1022 30.18 851 25.13 -0.4 31.3 73 -4.6 23.7
03:40 1021 30.15 851 25.13 -0.5 31.1 74 -4.6 23.7
03:45 1021 30.15 851 25.13 -0.6 30.9 74 -4.6 23.7
03:50 1021 30.15 851 25.13 -0.8 30.6 75 -4.6 23.6
03:55 1021 30.15 851 25.13 -0.8 30.5 72 -5.3 22.5
04:00 1021 30.15 851 25.13 -0.8 30.6 72 -5.3 22.5
04:05 1021 30.15 851 25.13 -0.5 31 70 -5.3 22.4
04:10 1021 30.15 851 25.13 -0.4 31.2 71 -5.1 22.9
04:15 1022 30.18 851 25.13 -0.5 31.2 72 -4.9 23.1
04:20 1022 30.18 851 25.13 -0.6 31 72 -5 23
04:25 1021 30.15 851 25.13 -0.6 31 72 -5 23
04:30 1022 30.18 851 25.13 -0.6 30.9 72 -5.1 22.8
04:35 1022 30.18 851 25.13 -0.6 30.9 72 -5.1 22.8
04:40 1022 30.18 851 25.13 -0.6 30.9 72 -5 22.9
04:45 1022 30.18 851 25.13 -0.6 30.8 71 -5.2 22.6
04:50 1022 30.18 851 25.13 -0.6 30.9 71 -5.2 22.7
04:55 1022 30.18 851 25.13 -0.8 30.6 72 -5.2 22.6
05:00 1022 30.18 851 25.13 -0.8 30.6 72 -5.3 22.5
05:05 1022 30.18 851 25.13 -0.8 30.5 71 -5.4 22.3
05:10 1022 30.18 851 25.13 -0.9 30.4 72 -5.4 22.4
05:15 1022 30.18 851 25.13 -0.9 30.3 74 -5 23.1
05:20 1022 30.18 851 25.13 -1 30.1 75 -5 23.1
05:25 1022 30.18 851 25.13 -1.1 30 74 -5.2 22.7
05:30 1022 30.18 851 25.13 -1.2 29.8 75 -5.1 22.8
05:35 1022 30.18 851 25.13 -1.2 29.8 76 -5 23
05:40 1022 30.18 851 25.13 -1.2 29.8 73 -5.4 22.4
05:45 1022 30.18 851 25.13 -1 30.2 73 -5.3 22.4
05:50 1022 30.18 851 25.13 -1.1 30 72 -5.5 22.1
05:55 1022 30.18 851 25.13 -1.3 29.7 73 -5.6 22
06:00 1022 30.18 851 25.13 -1.4 29.5 72 -5.7 21.7
06:05 1022 30.18 851 25.13 -1.4 29.5 71 -6 21.2
06:10 1021 30.15 851 25.13 -1.4 29.5 71 -6 21.2
06:15 1021 30.15 851 25.13 -1.3 29.6 70 -6.1 21
06:20 1021 30.15 851 25.13 -1.2 29.8 69 -6.1 21
06:25 1021 30.15 851 25.13 -1.2 29.9 69 -6.2 20.9
06:30 1021 30.15 851 25.13 -1.1 29.9 68 -6.4 20.5
06:35 1021 30.15 851 25.13 -1.2 29.9 67 -6.6 20.1
06:40 1021 30.15 851 25.13 -1.3 29.7 67 -6.7 20
06:45 1021 30.15 851 25.13 -1.1 29.9 67 -6.5 20.2
06:50 1021 30.15 851 25.13 -1 30.2 67 -6.3 20.6
06:55 1021 30.15 851 25.13 -0.7 30.7 67 -6 21.1
07:00 1021 30.15 851 25.13 -0.5 31.2 66 -5.9 21.3
07:05 1021 30.15 851 25.13 -0.1 31.8 65 -5.8 21.5
07:10 1021 30.15 851 25.13 0.1 32.1 65 -5.6 21.8
07:15 1021 30.15 851 25.13 0.3 32.6 65 -5.5 22
07:20 1021 30.15 851 25.13 0.4 32.8 65 -5.4 22.3
07:25 1021 30.15 851 25.13 0.7 33.2 64 -5.3 22.5
07:30 1021 30.15 851 25.13 0.9 33.7 64 -5.1 22.8
07:35 1021 30.15 851 25.13 1.3 34.3 62 -5.1 22.8
07:40 1021 30.15 851 25.13 1.8 35.2 61 -5.1 22.9
07:45 1021 30.15 851 25.13 1.7 35 62 -4.9 23.2
07:50 1021 30.15 851 25.13 1.8 35.2 61 -5 23
07:55 1021 30.15 851 25.13 1.9 35.4 61 -4.9 23.2
08:00 1021 30.15 851 25.13 1.9 35.4 59 -5.2 22.6
08:05 1021 30.15 851 25.13 2.2 36 58 -5.1 22.9
08:10 1021 30.15 851 25.13 2.7 36.8 56 -5.2 22.7
08:15 1021 30.15 851 25.13 2.4 36.3 57 -5.2 22.7
08:20 1021 30.15 851 25.13 2.9 37.3 54 -5.5 22.1
08:25 1021 30.15 851 25.13 2.9 37.1 53 -5.7 21.7
08:30 1021 30.15 851 25.13 3 37.4 50 -6.3 20.7
08:35 1021 30.15 851 25.13 3.3 38 49 -6.3 20.6
08:40 1021 30.15 850 25.1 3.9 39 48 -6.1 21
08:45 1021 30.15 850 25.1 4.2 39.5 45 -6.6 20.1
08:50 1021 30.15 850 25.1 4.3 39.8 45 -6.5 20.2
08:55 1021 30.15 850 25.1 4.7 40.4 44 -6.4 20.4
09:00 1021 30.15 850 25.1 5.1 41.2 44 -6.2 20.8
09:05 1021 30.15 850 25.1 5 40.9 44 -6.2 20.8
09:10 1021 30.15 850 25.1 4.9 40.9 43 -6.6 20.2
09:15 1021 30.15 850 25.1 5.8 42.5 40 -6.7 19.9
09:20 1021 30.15 850 25.1 5.8 42.5 40 -6.6 20.1
09:25 1021 30.15 850 25.1 6.2 43.2 40 -6.4 20.5
09:30 1021 30.15 850 25.1 6.7 44 39 -6.4 20.5
09:35 1021 30.15 850 25.1 6.9 44.5 41 -5.4 22.3
09:40 1021 30.15 850 25.1 6.9 44.3 40 -5.9 21.4
09:45 1021 30.15 850 25.1 6.7 44.1 39 -6.2 20.8
09:50 1021 30.15 850 25.1 7.3 45.1 41 -5.2 22.6
09:55 1021 30.15 850 25.1 7 44.5 42 -4.9 23.1
10:00 1021 30.15 850 25.1 6.7 44.1 40 -6.1 21.1
10:05 1021 30.15 850 25.1 6.9 44.5 39 -6.2 20.8
10:10 1021 30.15 850 25.1 7.1 44.7 40 -5.5 22.2
10:15 1021 30.15 850 25.1 7 44.5 38 -6.4 20.6
10:20 1021 30.15 850 25.1 7.6 45.7 37 -6.3 20.7
10:25 1021 30.15 850 25.1 7.8 46 36 -6.3 20.6
10:30 1021 30.15 850 25.1 8.1 46.5 39 -5 23
10:35 1021 30.15 850 25.1 7.7 45.8 35 -6.7 19.9
10:40 1021 30.15 850 25.1 8.9 47.9 35 -5.8 21.6
10:45 1021 30.15 850 25.1 9.1 48.3 33 -6.2 20.8
10:50 1021 30.15 850 25.1 9 48.2 32 -6.6 20
10:55 1020 30.12 850 25.1 8.1 46.6 32 -7.6 18.4
11:00 1020 30.12 850 25.1 8.9 48 31 -7.2 19
11:05 1020 30.12 850 25.1 9.2 48.5 28 -8.2 17.3
11:10 1020 30.12 850 25.1 9.8 49.6 24 -10.1 13.9
11:15 1020 30.12 850 25.1 9.9 49.8 26 -8.9 16
11:20 1020 30.12 849 25.07 9.7 49.4 25 -9.3 15.3
11:25 1020 30.12 849 25.07 10.1 50.2 25 -9.1 15.7
11:30 1020 30.12 849 25.07 10.4 50.7 25 -9 15.7
11:35 1020 30.12 849 25.07 9.8 49.6 26 -9.1 15.7
11:40 1020 30.12 849 25.07 9.8 49.6 25 -9.2 15.5
11:45 1020 30.12 849 25.07 10.1 50.2 26 -8.7 16.3
11:50 1020 30.12 849 25.07 10.5 50.9 25 -8.7 16.3
11:55 1020 30.12 849 25.07 9.7 49.4 26 -8.8 16.2
12:00 1020 30.12 849 25.07 9.6 49.2 26 -9.1 15.7
12:05 1020 30.12 849 25.07 9.8 49.7 27 -8.5 16.7
12:10 1020 30.12 849 25.07 8.6 47.4 28 -9.2 15.5
12:15 1020 30.12 849 25.07 9.9 49.8 24 -9.5 14.9
12:20 1020 30.12 849 25.07 10.5 50.8 25 -8.7 16.3
12:25 1020 30.12 849 25.07 9.9 49.8 26 -8.9 15.9
12:30 1020 30.12 849 25.07 11 51.9 25 -8.3 17.1
12:35 1020 30.12 849 25.07 10.7 51.3 25 -8.3 17
12:40 1020 30.12 849 25.07 9.6 49.3 27 -8.7 16.3
12:45 1020 30.12 849 25.07 10.3 50.6 26 -8.4 16.9
12:50 1019 30.09 849 25.07 9.4 48.9 28 -8.1 17.4
12:55 1019 30.09 849 25.07 9.6 49.3 26 -9.1 15.7
13:00 1019 30.09 849 25.07 10 50.1 26 -8.6 16.5
13:05 1019 30.09 848 25.04 9.9 49.7 27 -8.2 17.3
13:10 1019 30.09 848 25.04 10.2 50.4 26 -8.5 16.7
13:15 1019 30.09 848 25.04 11.3 52.3 24 -8.6 16.5
13:20 1019 30.09 848 25.04 12 53.5 23 -8.4 17
13:25 1019 30.09 848 25.04 11 51.7 25 -8.2 17.3
13:30 1019 30.09 848 25.04 10.5 50.9 25 -8.7 16.4
13:35 1019 30.09 848 25.04 10.6 51 26 -8.1 17.4
13:40 1019 30.09 848 25.04 9.7 49.5 26 -8.7 16.4
13:45 1019 30.09 848 25.04 9.7 49.4 27 -8.3 17.1
13:50 1019 30.09 848 25.04 10.5 51 25 -8.6 16.6
13:55 1019 30.09 848 25.04 10.6 51.1 26 -8.3 17.1
14:00 1019 30.09 848 25.04 11.4 52.5 25 -8.1 17.3
14:05 1019 30.09 848 25.04 11.5 52.7 24 -8.2 17.2
14:10 1018 30.06 848 25.04 11.6 52.8 24 -8.3 17
14:15 1018 30.06 848 25.04 11.6 52.8 25 -7.6 18.4
14:20 1019 30.09 848 25.04 11.3 52.4 25 -8 17.7
14:25 1019 30.09 848 25.04 11.1 52 25 -8.1 17.4
14:30 1018 30.06 848 25.04 11.7 53.1 25 -7.8 18
14:35 1018 30.06 848 25.04 11 51.8 26 -7.6 18.2
14:40 1018 30.06 847 25.01 10.7 51.3 26 -8 17.6
14:45 1018 30.06 847 25.01 10.3 50.6 26 -8.2 17.2
14:50 1018 30.06 847 25.01 11.3 52.3 24 -8.3 17
14:55 1018 30.06 847 25.01 11.1 52 25 -8.1 17.4
15:00 1018 30.06 847 25.01 11.8 53.2 25 -7.6 18.3
15:05 1018 30.06 847 25.01 11.6 52.9 24 -8.1 17.3
15:10 1018 30.06 847 25.01 11.3 52.3 25 -8.1 17.5
15:15 1018 30.06 847 25.01 11.4 52.6 24 -8.3 17.1
15:20 1018 30.06 847 25.01 11.6 52.9 24 -8.1 17.4
15:25 1018 30.06 847 25.01 11.7 53.1 24 -8.2 17.3
15:30 1018 30.06 847 25.01 12 53.7 24 -7.8 18
15:35 1017 30.03 847 25.01 12.6 54.7 24 -7.1 19.2
15:40 1017 30.03 847 25.01 11.6 52.9 25 -7.5 18.4
15:45 1017 30.03 847 25.01 11.7 53.1 25 -7.9 17.8
15:50 1017 30.03 846 24.98 11.3 52.3 26 -7.5 18.5
15:55 1017 30.03 846 24.98 11.2 52.1 25 -7.9 17.8
16:00 1017 30.03 846 24.98 11.5 52.7 24 -8.4 16.8
16:05 1017 30.03 846 24.98 12.7 54.9 23 -8.2 17.3
16:10 1017 30.03 846 24.98 13.2 55.8 23 -7.2 19.1
16:15 1017 30.03 846 24.98 13.1 55.6 23 -7.6 18.4
16:20 1017 30.03 846 24.98 12.6 54.6 24 -7.4 18.6
16:25 1017 30.03 846 24.98 12.8 55 24 -7.5 18.5
16:30 1017 30.03 846 24.98 11.7 53 25 -7.5 18.5
16:35 1017 30.03 846 24.98 11.7 53 25 -7.5 18.6
16:40 1017 30.03 846 24.98 11.8 53.2 25 -7.6 18.3
16:45 1017 30.03 846 24.98 12.8 55 24 -7.2 19
16:50 1017 30.03 846 24.98 12.8 55.1 24 -7.3 18.9
16:55 1017 30.03 846 24.98 12.9 55.3 24 -7 19.4
17:00 1016 30 846 24.98 12.6 54.6 24 -7.4 18.7
17:05 1016 30 846 24.98 13.2 55.7 23 -7.4 18.7
17:10 1016 30 845 24.95 13.4 56.2 23 -7.1 19.2
17:15 1016 30 845 24.95 12.8 55.1 24 -7.1 19.2
17:20 1016 30 845 24.95 12.5 54.6 24 -7.4 18.7
17:25 1016 30 845 24.95 12.4 54.2 25 -7.2 19
17:30 1016 30 845 24.95 12.6 54.7 24 -7.5 18.6
17:35 1016 30 845 24.95 12.6 54.7 25 -6.9 19.5
17:40 1016 30 845 24.95 12.3 54.2 24 -7.4 18.7
17:45 1016 30 845 24.95 12.8 55 25 -6.9 19.6
17:50 1016 30 845 24.95 12.2 53.9 25 -7.5 18.5
17:55 1016 30 845 24.95 12 53.7 25 -7.5 18.5
18:00 1016 30 845 24.95 12.5 54.5 25 -7.1 19.3
18:05 1016 30 845 24.95 12.3 54.1 25 -7.3 18.9
18:10 1016 30 845 24.95 12 53.7 25 -7.4 18.6
18:15 1016 30 845 24.95 12.2 54 24 -7.5 18.5
18:20 1016 30 845 24.95 12.4 54.3 24 -7.4 18.6
18:25 1016 30 845 24.95 12.1 53.9 25 -7.3 18.9
18:30 1016 30 845 24.95 12.1 53.9 25 -7.5 18.5
18:35 1016 30 845 24.95 12.1 53.8 25 -7.3 18.9
18:40 1015 29.97 845 24.95 12 53.6 25 -7.2 19.1
18:45 1016 30 845 24.95 12 53.5 25 -7.2 19
18:50 1015 29.97 845 24.95 12 53.5 25 -7.2 19
18:55 1015 29.97 845 24.95 12.2 53.9 25 -7.1 19.1
19:00 1015 29.97 845 24.95 12.3 54.1 26 -6.9 19.6
19:05 1015 29.97 844 24.92 12.3 54.1 25 -7 19.4
19:10 1015 29.97 844 24.92 12.3 54.1 25 -7.1 19.3
19:15 1015 29.97 844 24.92 12.2 53.9 26 -6.8 19.8
19:20 1015 29.97 844 24.92 12.2 54 26 -6.5 20.3
19:25 1015 29.97 844 24.92 12 53.7 28 -6.1 21.1
19:30 1015 29.97 844 24.92 11.9 53.4 28 -5.9 21.3
19:35 1015 29.97 844 24.92 11.7 53.1 28 -6.1 21
19:40 1015 29.97 844 24.92 11.5 52.7 28 -6.1 21
19:45 1015 29.97 844 24.92 11.2 52.2 30 -5.9 21.4
19:50 1015 29.97 844 24.92 11 51.8 30 -6.1 21.1
19:55 1015 29.97 844 24.92 10.8 51.4 30 -6.2 20.9
20:00 1015 29.97 844 24.92 10.6 51.1 30 -6 21.2
20:05 1015 29.97 844 24.92 10.4 50.8 31 -6.1 21
20:10 1015 29.97 844 24.92 10.2 50.4 31 -6 21.3
20:15 1015 29.97 844 24.92 10 50 32 -6.1 20.9
20:20 1015 29.97 844 24.92 9.8 49.6 32 -6 21.1
20:25 1015 29.97 844 24.92 9.6 49.3 33 -6 21.3
20:30 1015 29.97 844 24.92 9.5 49 33 -5.9 21.4
20:35 1015 29.97 844 24.92 9.3 48.8 34 -5.8 21.5
20:40 1015 29.97 844 24.92 9.2 48.5 34 -5.8 21.5
20:45 1015 29.97 844 24.92 9.1 48.3 35 -5.7 21.7
20:50 1015 29.97 844 24.92 9 48.2 35 -5.7 21.7
20:55 1015 29.97 844 24.92 8.9 48 36 -5.5 22.1
21:00 1015 29.97 844 24.92 8.7 47.7 36 -5.3 22.4
21:05 1015 29.97 844 24.92 8.7 47.6 37 -5.3 22.4
21:10 1015 29.97 844 24.92 8.5 47.4 37 -5.4 22.3
21:15 1015 29.97 844 24.92 8.5 47.2 38 -5.2 22.6
21:20 1015 29.97 844 24.92 8.3 47 37 -5.3 22.4
21:25 1015 29.97 844 24.92 8.3 47 37 -5.4 22.3
21:30 1015 29.97 844 24.92 8.3 46.9 38 -5.2 22.6
21:35 1015 29.97 844 24.92 8.2 46.8 38 -5.2 22.6
21:40 1015 29.97 844 24.92 8.1 46.7 38 -5.2 22.7
21:45 1015 29.97 844 24.92 8.1 46.5 38 -5.2 22.6
21:50 1015 29.97 844 24.92 8.1 46.6 38 -5.4 22.3
21:55 1015 29.97 844 24.92 8.1 46.5 39 -5.1 22.8
22:00 1015 29.97 844 24.92 7.9 46.3 39 -5.1 22.8
22:05 1015 29.97 844 24.92 7.9 46.2 40 -5 23
22:10 1015 29.97 844 24.92 7.8 46.1 40 -4.9 23.1
22:15 1015 29.97 844 24.92 7.7 45.9 40 -4.9 23.2
22:20 1014 29.94 844 24.92 7.7 45.8 41 -4.9 23.2
22:25 1014 29.94 844 24.92 7.6 45.6 41 -4.9 23.2
22:30 1014 29.94 844 24.92 7.5 45.4 41 -4.9 23.2
22:35 1015 29.97 844 24.92 7.4 45.3 42 -4.7 23.5
22:40 1015 29.97 844 24.92 7.4 45.2 42 -4.7 23.5
22:45 1015 29.97 844 24.92 7.3 45.1 42 -4.7 23.6
22:50 1015 29.97 844 24.92 7.1 44.8 43 -4.6 23.8
22:55 1014 29.94 844 24.92 7.1 44.7 43 -4.7 23.6
23:00 1014 29.94 844 24.92 7 44.6 43 -4.7 23.6
23:05 1014 29.94 844 24.92 7 44.5 43 -4.8 23.4
23:10 1014 29.94 844 24.92 6.9 44.4 44 -4.6 23.7
23:15 1014 29.94 843 24.89 6.7 44.1 44 -4.7 23.6
23:20 1014 29.94 843 24.89 6.7 44.1 43 -4.9 23.3
23:25 1014 29.94 843 24.89 6.7 44.1 43 -4.9 23.2
23:30 1014 29.94 843 24.89 6.7 44.1 43 -5 23.1
23:35 1014 29.94 843 24.89 6.7 44.1 43 -4.9 23.2
23:40 1014 29.94 843 24.89 6.6 43.9 44 -4.8 23.3
23:45 1014 29.94 843 24.89 6.5 43.7 44 -4.8 23.3
23:50 1014 29.94 843 24.89 6.4 43.6 44 -5 23
23:55 1014 29.94 843 24.89 6.4 43.5 44 -5 23.1
24:00 1014 29.94 843 24.89 6.3 43.4 44 -5 22.9